sensor_id;sensor_type;location;lat;lon;timestamp;pressure;altitude;pressure_sealevel;temperature;humidity
20612;BME280;10465;42.686;23.364;2023-02-13T00:00:35;96690.06;;;2.62;77.63
20612;BME280;10465;42.686;23.364;2023-02-13T00:03:01;96676.28;;;2.48;77.86
20612;BME280;10465;42.686;23.364;2023-02-13T00:05:26;96694.88;;;2.65;77.46
20612;BME280;10465;42.686;23.364;2023-02-13T00:07:52;96642.81;;;2.25;77.45
20612;BME280;10465;42.686;23.364;2023-02-13T00:10:17;96700.50;;;2.68;77.63
20612;BME280;10465;42.686;23.364;2023-02-13T00:12:42;96686.66;;;2.61;77.69
20612;BME280;10465;42.686;23.364;2023-02-13T00:15:08;96697.09;;;2.68;77.57
20612;BME280;10465;42.686;23.364;2023-02-13T00:17:34;96710.56;;;2.71;77.61
20612;BME280;10465;42.686;23.364;2023-02-13T00:20:00;96711.75;;;2.69;77.44
20612;BME280;10465;42.686;23.364;2023-02-13T00:22:25;96680.88;;;2.53;77.38
20612;BME280;10465;42.686;23.364;2023-02-13T00:24:51;96717.78;;;2.69;77.14
20612;BME280;10465;42.686;23.364;2023-02-13T00:27:16;96716.59;;;2.72;77.09
20612;BME280;10465;42.686;23.364;2023-02-13T00:29:42;96706.94;;;2.66;77.05
20612;BME280;10465;42.686;23.364;2023-02-13T00:32:08;96682.25;;;2.55;77.05
20612;BME280;10465;42.686;23.364;2023-02-13T00:34:33;96689.69;;;2.58;77.20
20612;BME280;10465;42.686;23.364;2023-02-13T00:36:59;96720.78;;;2.80;76.81
20612;BME280;10465;42.686;23.364;2023-02-13T00:39:24;96723.41;;;2.73;77.15
20612;BME280;10465;42.686;23.364;2023-02-13T00:41:50;96718.75;;;2.75;76.94
20612;BME280;10465;42.686;23.364;2023-02-13T00:44:16;96723.63;;;2.71;77.34
20612;BME280;10465;42.686;23.364;2023-02-13T00:46:41;96702.19;;;2.56;76.89
20612;BME280;10465;42.686;23.364;2023-02-13T00:49:07;96727.03;;;2.72;77.39
20612;BME280;10465;42.686;23.364;2023-02-13T00:51:32;96719.22;;;2.65;77.40
20612;BME280;10465;42.686;23.364;2023-02-13T00:53:58;96727.03;;;2.72;77.62
20612;BME280;10465;42.686;23.364;2023-02-13T00:56:23;96725.41;;;2.71;77.24
20612;BME280;10465;42.686;23.364;2023-02-13T00:58:49;96723.03;;;2.69;77.14
20612;BME280;10465;42.686;23.364;2023-02-13T01:01:14;96702.19;;;2.56;77.05
20612;BME280;10465;42.686;23.364;2023-02-13T01:03:40;96720.44;;;2.63;77.21
20612;BME280;10465;42.686;23.364;2023-02-13T01:06:06;96732.47;;;2.70;77.32
20612;BME280;10465;42.686;23.364;2023-02-13T01:08:32;96697.94;;;2.55;77.37
20612;BME280;10465;42.686;23.364;2023-02-13T01:10:58;96722.81;;;2.71;77.32
20612;BME280;10465;42.686;23.364;2023-02-13T01:13:23;96727.44;;;2.76;77.29
20612;BME280;10465;42.686;23.364;2023-02-13T01:15:49;96704.78;;;2.56;77.16
20612;BME280;10465;42.686;23.364;2023-02-13T01:18:16;96724.03;;;2.68;77.63
20612;BME280;10465;42.686;23.364;2023-02-13T01:20:42;96725.88;;;2.61;77.63
20612;BME280;10465;42.686;23.364;2023-02-13T01:23:09;96736.06;;;2.76;77.77
20612;BME280;10465;42.686;23.364;2023-02-13T01:25:37;96742.50;;;2.73;77.27
20612;BME280;10465;42.686;23.364;2023-02-13T01:28:03;96736.88;;;2.77;77.42
20612;BME280;10465;42.686;23.364;2023-02-13T01:30:28;96726.09;;;2.60;77.68
20612;BME280;10465;42.686;23.364;2023-02-13T01:32:54;96736.09;;;2.69;77.83
20612;BME280;10465;42.686;23.364;2023-02-13T01:35:19;96739.34;;;2.65;78.32
20612;BME280;10465;42.686;23.364;2023-02-13T01:37:45;96741.56;;;2.61;77.76
20612;BME280;10465;42.686;23.364;2023-02-13T01:40:12;96740.78;;;2.54;77.42
20612;BME280;10465;42.686;23.364;2023-02-13T01:42:38;96742.84;;;2.45;77.00
20612;BME280;10465;42.686;23.364;2023-02-13T01:45:26;96750.13;;;2.37;77.26
20612;BME280;10465;42.686;23.364;2023-02-13T01:48:05;96750.72;;;2.32;76.71
20612;BME280;10465;42.686;23.364;2023-02-13T01:50:39;96750.56;;;2.27;75.82
20612;BME280;10465;42.686;23.364;2023-02-13T01:53:11;96723.13;;;1.91;76.52
20612;BME280;10465;42.686;23.364;2023-02-13T01:55:44;96762.03;;;2.13;76.91
20612;BME280;10465;42.686;23.364;2023-02-13T01:58:15;96761.81;;;2.21;78.44
20612;BME280;10465;42.686;23.364;2023-02-13T02:00:44;96724.66;;;2.12;78.77
20612;BME280;10465;42.686;23.364;2023-02-13T02:03:20;96739.84;;;2.42;78.75
20612;BME280;10465;42.686;23.364;2023-02-13T02:05:50;96748.47;;;2.49;78.21
20612;BME280;10465;42.686;23.364;2023-02-13T02:08:18;96748.63;;;2.54;78.19
20612;BME280;10465;42.686;23.364;2023-02-13T02:10:44;96750.03;;;2.63;77.98
20612;BME280;10465;42.686;23.364;2023-02-13T02:13:15;96675.00;;;2.19;77.59
20612;BME280;10465;42.686;23.364;2023-02-13T02:15:43;96742.19;;;2.63;77.31
20612;BME280;10465;42.686;23.364;2023-02-13T02:18:19;96740.50;;;2.76;77.66
20612;BME280;10465;42.686;23.364;2023-02-13T02:29:10;96749.56;;;2.73;77.94
20612;BME280;10465;42.686;23.364;2023-02-13T02:34:48;96736.72;;;2.71;77.41
20612;BME280;10465;42.686;23.364;2023-02-13T02:49:05;96768.09;;;2.71;77.68
20612;BME280;10465;42.686;23.364;2023-02-13T02:52:04;96774.53;;;2.69;77.59
20612;BME280;10465;42.686;23.364;2023-02-13T02:54:51;96774.13;;;2.65;78.34
20612;BME280;10465;42.686;23.364;2023-02-13T02:57:37;96757.28;;;2.55;77.95
20612;BME280;10465;42.686;23.364;2023-02-13T03:00:24;96783.00;;;2.64;78.53
20612;BME280;10465;42.686;23.364;2023-02-13T03:03:22;96774.78;;;2.54;79.00
20612;BME280;10465;42.686;23.364;2023-02-13T03:06:15;96781.88;;;2.34;76.61
20612;BME280;10465;42.686;23.364;2023-02-13T03:08:50;96776.53;;;2.09;75.08
20612;BME280;10465;42.686;23.364;2023-02-13T03:11:36;96768.13;;;1.80;74.56
20612;BME280;10465;42.686;23.364;2023-02-13T03:14:20;96780.00;;;1.63;75.11
20612;BME280;10465;42.686;23.364;2023-02-13T03:16:48;96779.97;;;1.49;75.55
20612;BME280;10465;42.686;23.364;2023-02-13T03:19:56;96779.38;;;1.41;75.54
20612;BME280;10465;42.686;23.364;2023-02-13T03:28:39;96778.50;;;0.94;77.09
20612;BME280;10465;42.686;23.364;2023-02-13T03:34:16;96775.09;;;1.00;77.53
20612;BME280;10465;42.686;23.364;2023-02-13T03:36:51;96763.84;;;0.93;77.65
20612;BME280;10465;42.686;23.364;2023-02-13T03:39:48;96756.81;;;0.87;77.60
20612;BME280;10465;42.686;23.364;2023-02-13T03:42:20;96783.31;;;0.97;77.76
20612;BME280;10465;42.686;23.364;2023-02-13T03:44:58;96788.72;;;0.95;77.88
20612;BME280;10465;42.686;23.364;2023-02-13T03:47:43;96771.25;;;0.83;77.85
20612;BME280;10465;42.686;23.364;2023-02-13T03:50:10;96794.13;;;0.87;78.07
20612;BME280;10465;42.686;23.364;2023-02-13T03:52:42;96769.81;;;0.73;78.22
20612;BME280;10465;42.686;23.364;2023-02-13T03:55:13;96779.47;;;0.93;78.41
20612;BME280;10465;42.686;23.364;2023-02-13T03:58:06;96780.88;;;0.89;78.10
20612;BME280;10465;42.686;23.364;2023-02-13T04:00:54;96782.50;;;0.90;78.30
20612;BME280;10465;42.686;23.364;2023-02-13T04:03:30;96781.72;;;0.89;78.35
20612;BME280;10465;42.686;23.364;2023-02-13T04:06:42;96758.63;;;0.86;79.09
20612;BME280;10465;42.686;23.364;2023-02-13T04:08:59;96780.72;;;1.04;78.14
20612;BME280;10465;42.686;23.364;2023-02-13T04:11:33;96768.88;;;0.94;77.60
20612;BME280;10465;42.686;23.364;2023-02-13T04:14:03;96780.09;;;0.95;78.06
20612;BME280;10465;42.686;23.364;2023-02-13T04:16:39;96771.91;;;0.98;78.63
20612;BME280;10465;42.686;23.364;2023-02-13T04:19:06;96753.41;;;0.86;78.99
20612;BME280;10465;42.686;23.364;2023-02-13T04:21:34;96784.34;;;1.09;79.01
20612;BME280;10465;42.686;23.364;2023-02-13T04:24:01;96749.38;;;0.84;78.59
20612;BME280;10465;42.686;23.364;2023-02-13T04:26:33;96796.41;;;1.10;78.13
20612;BME280;10465;42.686;23.364;2023-02-13T04:28:58;96788.72;;;0.95;77.84
20612;BME280;10465;42.686;23.364;2023-02-13T04:31:24;96791.13;;;0.90;77.92
20612;BME280;10465;42.686;23.364;2023-02-13T04:33:49;96780.88;;;0.82;78.57
20612;BME280;10465;42.686;23.364;2023-02-13T04:36:14;96779.91;;;1.03;78.34
20612;BME280;10465;42.686;23.364;2023-02-13T04:38:40;96775.72;;;1.09;78.77
20612;BME280;10465;42.686;23.364;2023-02-13T04:41:05;96792.59;;;1.19;78.67
20612;BME280;10465;42.686;23.364;2023-02-13T04:43:31;96771.91;;;1.11;78.21
20612;BME280;10465;42.686;23.364;2023-02-13T04:45:56;96756.63;;;0.95;77.89
20612;BME280;10465;42.686;23.364;2023-02-13T04:48:22;96783.75;;;1.07;77.84
20612;BME280;10465;42.686;23.364;2023-02-13T04:50:47;96783.72;;;1.01;78.12
20612;BME280;10465;42.686;23.364;2023-02-13T04:53:12;96792.34;;;1.01;78.57
20612;BME280;10465;42.686;23.364;2023-02-13T04:55:38;96783.09;;;0.92;78.32
20612;BME280;10465;42.686;23.364;2023-02-13T04:58:03;96794.16;;;1.01;78.35
20612;BME280;10465;42.686;23.364;2023-02-13T05:00:29;96804.81;;;1.12;78.00
20612;BME280;10465;42.686;23.364;2023-02-13T05:03:08;96783.34;;;1.04;77.94
20612;BME280;10465;42.686;23.364;2023-02-13T05:05:34;96790.31;;;0.96;78.08
20612;BME280;10465;42.686;23.364;2023-02-13T05:08:00;96801.75;;;0.95;78.45
20612;BME280;10465;42.686;23.364;2023-02-13T05:10:26;96815.25;;;1.06;78.46
20612;BME280;10465;42.686;23.364;2023-02-13T05:12:51;96804.59;;;1.07;77.89
20612;BME280;10465;42.686;23.364;2023-02-13T05:15:17;96751.34;;;0.68;77.84
20612;BME280;10465;42.686;23.364;2023-02-13T05:17:43;96819.81;;;0.97;78.07
20612;BME280;10465;42.686;23.364;2023-02-13T05:20:12;96787.88;;;0.75;78.17
20612;BME280;10465;42.686;23.364;2023-02-13T05:22:43;96787.44;;;0.71;78.59
20612;BME280;10465;42.686;23.364;2023-02-13T05:25:27;96815.56;;;0.83;78.33
20612;BME280;10465;42.686;23.364;2023-02-13T05:27:53;96825.78;;;0.78;78.86
20612;BME280;10465;42.686;23.364;2023-02-13T05:30:19;96823.13;;;0.71;79.06
20612;BME280;10465;42.686;23.364;2023-02-13T05:32:44;96791.03;;;0.57;78.94
20612;BME280;10465;42.686;23.364;2023-02-13T05:35:10;96797.84;;;0.65;79.19
20612;BME280;10465;42.686;23.364;2023-02-13T05:37:35;96790.97;;;0.51;79.29
20612;BME280;10465;42.686;23.364;2023-02-13T05:40:00;96831.00;;;0.78;79.45
20612;BME280;10465;42.686;23.364;2023-02-13T05:42:26;96825.19;;;0.82;79.10
20612;BME280;10465;42.686;23.364;2023-02-13T05:44:51;96836.06;;;0.92;78.94
20612;BME280;10465;42.686;23.364;2023-02-13T05:47:17;96821.63;;;0.96;78.73
20612;BME280;10465;42.686;23.364;2023-02-13T05:49:42;96833.47;;;0.99;78.86
20612;BME280;10465;42.686;23.364;2023-02-13T05:52:07;96814.22;;;0.93;78.46
20612;BME280;10465;42.686;23.364;2023-02-13T05:54:33;96813.75;;;0.83;78.76
20612;BME280;10465;42.686;23.364;2023-02-13T05:56:58;96820.00;;;0.89;78.58
20612;BME280;10465;42.686;23.364;2023-02-13T05:59:24;96837.91;;;1.05;78.95
20612;BME280;10465;42.686;23.364;2023-02-13T06:01:49;96837.50;;;1.08;78.91
20612;BME280;10465;42.686;23.364;2023-02-13T06:04:15;96836.91;;;1.13;78.56
20612;BME280;10465;42.686;23.364;2023-02-13T06:06:40;96839.13;;;1.09;78.36
20612;BME280;10465;42.686;23.364;2023-02-13T06:09:06;96846.56;;;1.06;78.57
20612;BME280;10465;42.686;23.364;2023-02-13T06:11:31;96824.03;;;0.91;78.57
20612;BME280;10465;42.686;23.364;2023-02-13T06:13:56;96850.13;;;1.05;78.61
20612;BME280;10465;42.686;23.364;2023-02-13T06:16:22;96846.94;;;1.03;78.80
20612;BME280;10465;42.686;23.364;2023-02-13T06:18:47;96858.19;;;1.10;78.96
20612;BME280;10465;42.686;23.364;2023-02-13T06:21:13;96854.38;;;1.06;79.26
20612;BME280;10465;42.686;23.364;2023-02-13T06:23:38;96837.94;;;1.12;79.04
20612;BME280;10465;42.686;23.364;2023-02-13T06:26:05;96859.25;;;1.29;79.18
20612;BME280;10465;42.686;23.364;2023-02-13T06:28:31;96833.16;;;1.22;78.27
20612;BME280;10465;42.686;23.364;2023-02-13T06:30:57;96851.44;;;1.35;78.33
20612;BME280;10465;42.686;23.364;2023-02-13T06:33:23;96859.31;;;1.55;78.25
20612;BME280;10465;42.686;23.364;2023-02-13T06:35:48;96866.31;;;1.61;78.23
20612;BME280;10465;42.686;23.364;2023-02-13T06:38:13;96865.34;;;1.76;78.34
20612;BME280;10465;42.686;23.364;2023-02-13T06:40:39;96858.53;;;1.75;78.04
20612;BME280;10465;42.686;23.364;2023-02-13T06:43:04;96865.34;;;1.89;77.70
20612;BME280;10465;42.686;23.364;2023-02-13T06:45:30;96871.19;;;1.97;77.71
20612;BME280;10465;42.686;23.364;2023-02-13T06:47:56;96874.38;;;2.06;77.28
20612;BME280;10465;42.686;23.364;2023-02-13T06:50:21;96874.59;;;2.11;76.86
20612;BME280;10465;42.686;23.364;2023-02-13T06:52:48;96866.75;;;2.18;76.44
20612;BME280;10465;42.686;23.364;2023-02-13T06:55:14;96866.97;;;2.23;76.03
20612;BME280;10465;42.686;23.364;2023-02-13T06:57:41;96871.56;;;2.28;75.97
20612;BME280;10465;42.686;23.364;2023-02-13T07:00:08;96844.44;;;2.22;75.86
20612;BME280;10465;42.686;23.364;2023-02-13T07:02:36;96856.66;;;2.41;75.67
20612;BME280;10465;42.686;23.364;2023-02-13T07:05:02;96849.44;;;2.30;75.45
20612;BME280;10465;42.686;23.364;2023-02-13T07:07:32;96860.47;;;2.52;75.62
20612;BME280;10465;42.686;23.364;2023-02-13T07:09:59;96859.84;;;2.63;75.26
20612;BME280;10465;42.686;23.364;2023-02-13T07:12:25;96862.25;;;2.71;74.77
20612;BME280;10465;42.686;23.364;2023-02-13T07:14:50;96859.41;;;2.73;74.40
20612;BME280;10465;42.686;23.364;2023-02-13T07:17:16;96865.44;;;2.73;74.50
20612;BME280;10465;42.686;23.364;2023-02-13T07:19:41;96854.00;;;2.68;74.74
20612;BME280;10465;42.686;23.364;2023-02-13T07:22:07;96866.44;;;2.72;73.99
20612;BME280;10465;42.686;23.364;2023-02-13T07:24:32;96876.69;;;2.74;74.11
20612;BME280;10465;42.686;23.364;2023-02-13T07:27:00;96875.31;;;2.65;74.08
20612;BME280;10465;42.686;23.364;2023-02-13T07:29:25;96870.50;;;2.68;73.95
20612;BME280;10465;42.686;23.364;2023-02-13T07:31:51;96880.94;;;2.68;74.30
20612;BME280;10465;42.686;23.364;2023-02-13T07:34:16;96879.13;;;2.69;74.20
20612;BME280;10465;42.686;23.364;2023-02-13T07:36:41;96853.00;;;2.62;74.79
20612;BME280;10465;42.686;23.364;2023-02-13T07:39:07;96860.44;;;2.72;74.50
20612;BME280;10465;42.686;23.364;2023-02-13T07:41:33;96865.59;;;2.85;74.73
20612;BME280;10465;42.686;23.364;2023-02-13T07:43:58;96876.06;;;2.92;74.14
20612;BME280;10465;42.686;23.364;2023-02-13T07:46:24;96875.00;;;3.00;74.24
20612;BME280;10465;42.686;23.364;2023-02-13T07:48:51;96865.47;;;3.12;73.47
20612;BME280;10465;42.686;23.364;2023-02-13T07:51:16;96840.81;;;2.94;72.75
20612;BME280;10465;42.686;23.364;2023-02-13T07:53:42;96848.25;;;2.97;72.54
20612;BME280;10465;42.686;23.364;2023-02-13T07:56:08;96867.69;;;3.15;72.73
20612;BME280;10465;42.686;23.364;2023-02-13T07:58:35;96871.09;;;3.22;72.57
20612;BME280;10465;42.686;23.364;2023-02-13T08:01:11;96875.84;;;3.32;72.57
20612;BME280;10465;42.686;23.364;2023-02-13T08:03:37;96869.44;;;3.28;72.06
20612;BME280;10465;42.686;23.364;2023-02-13T08:06:03;96847.59;;;3.09;72.83
20612;BME280;10465;42.686;23.364;2023-02-13T08:08:29;96870.03;;;3.30;73.10
20612;BME280;10465;42.686;23.364;2023-02-13T08:10:55;96867.59;;;3.35;73.21
20612;BME280;10465;42.686;23.364;2023-02-13T08:13:40;96863.38;;;3.34;71.73
20612;BME280;10465;42.686;23.364;2023-02-13T08:16:07;96866.78;;;3.34;72.29
20612;BME280;10465;42.686;23.364;2023-02-13T08:18:33;96865.38;;;3.32;71.84
20612;BME280;10465;42.686;23.364;2023-02-13T08:21:00;96814.25;;;2.97;72.25
20612;BME280;10465;42.686;23.364;2023-02-13T08:23:26;96844.28;;;3.27;71.64
20612;BME280;10465;42.686;23.364;2023-02-13T08:25:52;96862.53;;;3.40;72.16
20612;BME280;10465;42.686;23.364;2023-02-13T08:28:17;96843.63;;;3.38;71.76
20612;BME280;10465;42.686;23.364;2023-02-13T08:30:43;96867.06;;;3.58;71.58
20612;BME280;10465;42.686;23.364;2023-02-13T08:33:08;96845.56;;;3.49;71.63
20612;BME280;10465;42.686;23.364;2023-02-13T08:35:33;96844.94;;;3.54;71.41
20612;BME280;10465;42.686;23.364;2023-02-13T08:38:03;96870.38;;;3.71;71.07
20612;BME280;10465;42.686;23.364;2023-02-13T08:40:30;96863.28;;;3.79;70.89
20612;BME280;10465;42.686;23.364;2023-02-13T08:43:00;96843.09;;;3.61;70.76
20612;BME280;10465;42.686;23.364;2023-02-13T08:45:26;96863.94;;;3.74;70.34
20612;BME280;10465;42.686;23.364;2023-02-13T08:47:55;96862.94;;;3.68;70.48
20612;BME280;10465;42.686;23.364;2023-02-13T08:50:21;96857.28;;;3.71;70.59
20612;BME280;10465;42.686;23.364;2023-02-13T08:52:46;96852.06;;;3.71;70.65
20612;BME280;10465;42.686;23.364;2023-02-13T08:55:11;96853.84;;;3.78;70.54
20612;BME280;10465;42.686;23.364;2023-02-13T08:57:37;96866.06;;;3.84;70.53
20612;BME280;10465;42.686;23.364;2023-02-13T09:00:03;96863.63;;;3.89;70.14
20612;BME280;10465;42.686;23.364;2023-02-13T09:02:28;96844.16;;;3.78;69.77
20612;BME280;10465;42.686;23.364;2023-02-13T09:04:54;96849.56;;;3.83;70.17
20612;BME280;10465;42.686;23.364;2023-02-13T09:07:19;96863.53;;;4.02;69.65
20612;BME280;10465;42.686;23.364;2023-02-13T09:09:44;96867.25;;;4.13;69.48
20612;BME280;10465;42.686;23.364;2023-02-13T09:12:10;96872.69;;;4.18;69.53
20612;BME280;10465;42.686;23.364;2023-02-13T09:14:35;96835.72;;;4.01;69.62
20612;BME280;10465;42.686;23.364;2023-02-13T09:17:03;96861.97;;;4.19;68.61
20612;BME280;10465;42.686;23.364;2023-02-13T09:19:28;96868.34;;;4.30;68.68
20612;BME280;10465;42.686;23.364;2023-02-13T09:21:54;96863.28;;;4.29;68.39
20612;BME280;10465;42.686;23.364;2023-02-13T09:24:19;96867.97;;;4.27;68.20
20612;BME280;10465;42.686;23.364;2023-02-13T09:26:44;96818.38;;;4.00;68.40
20612;BME280;10465;42.686;23.364;2023-02-13T09:29:10;96808.50;;;4.02;68.26
20612;BME280;10465;42.686;23.364;2023-02-13T09:31:35;96859.44;;;4.50;68.38
20612;BME280;10465;42.686;23.364;2023-02-13T09:34:01;96853.59;;;4.54;68.06
20612;BME280;10465;42.686;23.364;2023-02-13T09:36:26;96854.00;;;4.69;67.75
20612;BME280;10465;42.686;23.364;2023-02-13T09:38:56;96847.09;;;4.75;67.21
20612;BME280;10465;42.686;23.364;2023-02-13T09:41:24;96775.03;;;4.41;66.52
20612;BME280;10465;42.686;23.364;2023-02-13T09:47:06;96811.72;;;4.96;65.47
20612;BME280;10465;42.686;23.364;2023-02-13T09:49:38;96826.06;;;5.12;65.68
20612;BME280;10465;42.686;23.364;2023-02-13T09:52:04;96814.69;;;5.30;64.90
20612;BME280;10465;42.686;23.364;2023-02-13T09:54:30;96826.72;;;5.79;63.65
20612;BME280;10465;42.686;23.364;2023-02-13T09:57:12;96834.91;;;6.01;62.89
20612;BME280;10465;42.686;23.364;2023-02-13T10:02:40;96825.91;;;5.79;62.08
20612;BME280;10465;42.686;23.364;2023-02-13T10:08:10;96821.16;;;5.99;62.54
20612;BME280;10465;42.686;23.364;2023-02-13T10:10:51;96818.78;;;6.21;61.48
20612;BME280;10465;42.686;23.364;2023-02-13T10:16:11;96812.84;;;7.01;59.40
20612;BME280;10465;42.686;23.364;2023-02-13T10:21:41;96795.13;;;7.42;58.19
20612;BME280;10465;42.686;23.364;2023-02-13T10:27:24;96787.13;;;8.38;54.48
20612;BME280;10465;42.686;23.364;2023-02-13T10:30:20;96780.47;;;8.74;52.34
20612;BME280;10465;42.686;23.364;2023-02-13T10:37:46;96769.59;;;9.74;48.71
20612;BME280;10465;42.686;23.364;2023-02-13T10:40:15;96775.25;;;9.87;47.69
20612;BME280;10465;42.686;23.364;2023-02-13T10:45:48;96763.47;;;10.48;46.89
20612;BME280;10465;42.686;23.364;2023-02-13T10:51:13;96754.13;;;10.93;44.78
20612;BME280;10465;42.686;23.364;2023-02-13T10:53:52;96759.06;;;10.69;44.49
20612;BME280;10465;42.686;23.364;2023-02-13T10:57:05;96751.09;;;10.58;45.37
20612;BME280;10465;42.686;23.364;2023-02-13T11:00:16;96751.69;;;10.81;44.73
20612;BME280;10465;42.686;23.364;2023-02-13T11:02:42;96742.50;;;11.04;44.32
20612;BME280;10465;42.686;23.364;2023-02-13T11:05:19;96734.59;;;11.19;43.49
20612;BME280;10465;42.686;23.364;2023-02-13T11:07:46;96729.56;;;11.43;42.74
20612;BME280;10465;42.686;23.364;2023-02-13T11:10:23;96720.53;;;11.54;42.34
20612;BME280;10465;42.686;23.364;2023-02-13T11:12:49;96715.78;;;11.61;42.57
20612;BME280;10465;42.686;23.364;2023-02-13T11:15:28;96713.91;;;11.77;41.72
20612;BME280;10465;42.686;23.364;2023-02-13T11:17:59;96718.94;;;11.74;41.60
20612;BME280;10465;42.686;23.364;2023-02-13T11:20:36;96719.50;;;11.66;41.79
20612;BME280;10465;42.686;23.364;2023-02-13T11:29:00;96656.66;;;11.51;41.98
20612;BME280;10465;42.686;23.364;2023-02-13T11:31:37;96644.91;;;11.82;40.20
20612;BME280;10465;42.686;23.364;2023-02-13T11:36:51;96677.50;;;12.24;40.42
20612;BME280;10465;42.686;23.364;2023-02-13T11:39:21;96661.00;;;12.27;39.68
20612;BME280;10465;42.686;23.364;2023-02-13T11:41:47;96668.66;;;12.38;39.64
20612;BME280;10465;42.686;23.364;2023-02-13T11:44:27;96650.34;;;12.37;39.57
20612;BME280;10465;42.686;23.364;2023-02-13T11:46:56;96662.06;;;12.26;39.28
20612;BME280;10465;42.686;23.364;2023-02-13T11:49:30;96657.31;;;12.23;39.26
20612;BME280;10465;42.686;23.364;2023-02-13T11:52:00;96639.72;;;12.37;38.52
20612;BME280;10465;42.686;23.364;2023-02-13T11:54:31;96643.84;;;12.69;37.94
20612;BME280;10465;42.686;23.364;2023-02-13T11:57:00;96623.75;;;12.92;37.49
20612;BME280;10465;42.686;23.364;2023-02-13T11:59:30;96636.19;;;12.96;37.09
20612;BME280;10465;42.686;23.364;2023-02-13T12:04:28;96625.13;;;12.84;37.05
20612;BME280;10465;42.686;23.364;2023-02-13T12:09:24;96620.84;;;12.88;36.39
20612;BME280;10465;42.686;23.364;2023-02-13T12:11:53;96621.41;;;12.85;36.31
20612;BME280;10465;42.686;23.364;2023-02-13T12:14:26;96611.91;;;13.08;35.82
20612;BME280;10465;42.686;23.364;2023-02-13T12:16:59;96618.72;;;12.90;35.64
20612;BME280;10465;42.686;23.364;2023-02-13T12:19:42;96608.97;;;12.75;35.69
20612;BME280;10465;42.686;23.364;2023-02-13T12:27:51;96607.00;;;12.91;34.67
20612;BME280;10465;42.686;23.364;2023-02-13T12:30:34;96603.84;;;12.84;34.68
20612;BME280;10465;42.686;23.364;2023-02-13T12:36:20;96598.50;;;13.28;34.15
20612;BME280;10465;42.686;23.364;2023-02-13T12:39:09;96579.50;;;13.40;33.88
20612;BME280;10465;42.686;23.364;2023-02-13T12:42:36;96591.59;;;13.56;33.66
20612;BME280;10465;42.686;23.364;2023-02-13T12:44:52;96585.66;;;13.35;33.45
20612;BME280;10465;42.686;23.364;2023-02-13T12:47:22;96589.47;;;13.24;33.40
20612;BME280;10465;42.686;23.364;2023-02-13T12:50:13;96580.22;;;13.17;33.10
20612;BME280;10465;42.686;23.364;2023-02-13T13:04:19;96573.22;;;12.57;33.45
20612;BME280;10465;42.686;23.364;2023-02-13T13:09:50;96494.03;;;12.59;32.88
20612;BME280;10465;42.686;23.364;2023-02-13T13:20:36;96526.03;;;13.13;32.81
20612;BME280;10465;42.686;23.364;2023-02-13T13:23:23;96543.47;;;13.53;32.49
20612;BME280;10465;42.686;23.364;2023-02-13T13:26:03;96536.94;;;13.40;32.87
20612;BME280;10465;42.686;23.364;2023-02-13T13:28:35;96543.91;;;13.36;32.76
20612;BME280;10465;42.686;23.364;2023-02-13T13:31:03;96529.91;;;13.20;32.63
20612;BME280;10465;42.686;23.364;2023-02-13T13:33:29;96525.25;;;12.78;33.21
20612;BME280;10465;42.686;23.364;2023-02-13T13:39:05;96522.00;;;12.86;33.38
20612;BME280;10465;42.686;23.364;2023-02-13T13:41:45;96537.97;;;12.81;33.86
20612;BME280;10465;42.686;23.364;2023-02-13T13:47:19;96538.38;;;12.64;33.88
20612;BME280;10465;42.686;23.364;2023-02-13T13:50:00;96487.00;;;12.40;34.22
20612;BME280;10465;42.686;23.364;2023-02-13T13:54:55;96534.06;;;12.73;33.92
20612;BME280;10465;42.686;23.364;2023-02-13T13:58:17;96505.56;;;12.40;34.31
20612;BME280;10465;42.686;23.364;2023-02-13T14:00:32;96524.41;;;12.04;34.95
20612;BME280;10465;42.686;23.364;2023-02-13T14:07:54;96505.78;;;12.09;35.18
20612;BME280;10465;42.686;23.364;2023-02-13T14:29:29;96503.84;;;12.25;35.68
20612;BME280;10465;42.686;23.364;2023-02-13T14:31:42;96505.81;;;12.43;35.43
20612;BME280;10465;42.686;23.364;2023-02-13T14:34:19;96495.72;;;12.45;35.38
20612;BME280;10465;42.686;23.364;2023-02-13T14:37:12;96482.25;;;12.31;35.31
20612;BME280;10465;42.686;23.364;2023-02-13T14:40:08;96486.78;;;12.36;35.15
20612;BME280;10465;42.686;23.364;2023-02-13T14:42:35;96482.72;;;12.04;35.55
20612;BME280;10465;42.686;23.364;2023-02-13T14:45:03;96495.00;;;11.75;36.40
20612;BME280;10465;42.686;23.364;2023-02-13T14:47:36;96502.63;;;11.22;37.33
20612;BME280;10465;42.686;23.364;2023-02-13T14:50:06;96474.06;;;10.98;37.51
20612;BME280;10465;42.686;23.364;2023-02-13T14:52:35;96464.03;;;10.54;38.50
20612;BME280;10465;42.686;23.364;2023-02-13T14:55:06;96469.03;;;10.71;38.87
20612;BME280;10465;42.686;23.364;2023-02-13T14:57:42;96473.00;;;10.79;38.12
20612;BME280;10465;42.686;23.364;2023-02-13T15:00:24;96491.00;;;10.92;38.37
20612;BME280;10465;42.686;23.364;2023-02-13T15:02:58;96485.72;;;10.51;39.13
20612;BME280;10465;42.686;23.364;2023-02-13T15:05:36;96481.94;;;10.06;40.07
20612;BME280;10465;42.686;23.364;2023-02-13T15:08:14;96493.84;;;10.09;40.47
20612;BME280;10465;42.686;23.364;2023-02-13T15:10:43;96482.94;;;9.90;41.14
20612;BME280;10465;42.686;23.364;2023-02-13T15:13:34;96488.00;;;10.02;40.91
20612;BME280;10465;42.686;23.364;2023-02-13T15:18:35;96471.47;;;9.59;41.28
20612;BME280;10465;42.686;23.364;2023-02-13T15:21:04;96492.88;;;9.57;41.42
20612;BME280;10465;42.686;23.364;2023-02-13T15:23:32;96490.47;;;9.46;41.30
20612;BME280;10465;42.686;23.364;2023-02-13T15:26:05;96503.25;;;9.16;41.97
20612;BME280;10465;42.686;23.364;2023-02-13T15:28:32;96478.75;;;8.84;42.58
20612;BME280;10465;42.686;23.364;2023-02-13T15:31:16;96497.16;;;8.79;42.89
20612;BME280;10465;42.686;23.364;2023-02-13T15:33:47;96497.91;;;8.69;43.71
20612;BME280;10465;42.686;23.364;2023-02-13T15:36:24;96490.31;;;8.46;44.24